LYBE Airport Information

Runway Information
Runway 12 Length 11155 ft width 148 ft
Elevation 318 ft Threshold ft Heading 122
Runway 30 Length 11155 ft Width 148 ft
Elevation 335 ft Threshold 1312 ft Heading 302
Airport Frequencies
Type APP Name APP Frequency 119.1 MHZ
Type ATIS Name INFO Frequency 122.925 MHZ
Type TWR Name TWR Frequency 118.1 MHZ
Airport Navaids
Type VOR-DME Name Beograd Frequency 112050 KHZ
Type NDB Name Beograd Frequency 316 KHZ
Type NDB Name Beograd Frequency 380 KHZ
Type NDB Name Beograd Frequency 355 KHZ
Airport Weather Information & NOTAM
ADDS - METARS form results

(1849 UTC 03 July 2022)
Data provider http://aviationweather.gov/metar/data/
 
METAR text: LYBE 031830Z 35004KT CAVOK 30/19 Q1015 NOSIG
Conditions at: LYBE (BELGRADE/SURCIN , RS) observed 1830 UTC 03 July 2022
Temperature: 30.0°C (86°F)
Dewpoint: 19.0°C (66°F) [RH = 52%]
Pressure (altimeter): 29.97 inches Hg (1015.0 mb)
Winds: from the N (350 degrees) at 5 MPH (4 knots; 2.1 m/s)
Visibility: 6 or more miles (10+ km)
Ceiling: ceiling and visibility are OK
Clouds: unknown
Weather: no significant weather observed at this time

METAR text: LYBE 031800Z 32004KT CAVOK 32/18 Q1015 NOSIG
Conditions at: LYBE (BELGRADE/SURCIN , RS) observed 1800 UTC 03 July 2022
Temperature: 32.0°C (90°F)
Dewpoint: 18.0°C (64°F) [RH = 43%]
Pressure (altimeter): 29.97 inches Hg (1015.0 mb)
Winds: from the NW (320 degrees) at 5 MPH (4 knots; 2.1 m/s)
Visibility: 6 or more miles (10+ km)
Ceiling: ceiling and visibility are OK
Clouds: unknown
Weather: no significant weather observed at this time

Forecast for: LYBE (BELGRADE/SURCIN , RS)
Text: TAF LYBE 031700Z 0318/0418 27005KT CAVOK TX35/0413Z TN22/0403Z
Forecast period: 1800 UTC 03 July 2022 to 1800 UTC 04 July 2022
Forecast type: FROM: standard forecast or significant change
Winds: from the W (270 degrees) at 6 MPH (5 knots; 2.6 m/s)
Visibility: 6 or more miles (10+ km)
Ceiling: unknown
Clouds: missing
Weather: no significant weather forecast for this period